Azucar — ZCTR4 — position and weather

sailwx.info

Track history (hours):
 
Tides and Currents Weather Stations Pressure Air Temp Water Temp Dewpoint Dewpoint Depression Visibility Wind Speed Wind Dir Waves Ship Positions

Azucar

Last reported at 2014-Jul-20 22:32 UTC. Time now 2014-Jul-24 19:17 UTC.
Position N 41°44' E 012°15'.

Length 40 m; draft 2.1 m.

Type: Pleasure craft. MMSI: 319416000.

Date/timePositionNaut miles runAvg speedWind from/ knotsBaromVisibWave heightAir tempDewpointWater temp
2014-Jul-20 22:32N 41°44' E 012°15'0 0.0
2014-Jul-20 18:20N 41°44' E 012°15'56 1.8
2014-Jul-19 11:10N 40°55' E 012°51'0 0.0
2014-Jul-19 10:16N 40°55' E 012°51'5 2.0
2014-Jul-19 07:32N 40°53' E 012°57'2 0.2
2014-Jul-18 20:24N 40°54' E 012°58'0 0.0
2014-Jul-18 17:18N 40°54' E 012°58'7 0.3
2014-Jul-17 20:23N 40°50' E 013°06'1012.5
2014-Jul-17 19:34N 40°47' E 013°19'1212.3
2014-Jul-17 18:33N 40°44' E 013°34'1212.2
2014-Jul-17 17:34N 40°40' E 013°50'1212.2
2014-Jul-17 16:33N 40°37' E 014°05'1211.8
2014-Jul-17 15:33N 40°34' E 014°21'1 1.2
2014-Jul-17 14:19N 40°35' E 014°22'0 0.0
2014-Jul-17 13:30N 40°35' E 014°22'2 0.1
2014-Jul-16 08:33N 40°33' E 014°21'3 0.1
2014-Jul-14 11:33N 40°35' E 014°17'1110.8
2014-Jul-14 10:33N 40°40' E 014°05'6 5.9
2014-Jul-14 09:32N 40°44' E 013°58'0 0.0
2014-Jul-14 08:32N 40°44' E 013°58'0 0.0
2014-Jul-14 07:31N 40°44' E 013°58'0 0.0
2014-Jul-14 06:28N 40°44' E 013°58'0 0.0
2014-Jul-14 05:32N 40°44' E 013°58'0 0.0
2014-Jul-14 04:32N 40°44' E 013°58'0 0.0
2014-Jul-14 03:32N 40°44' E 013°58'0 0.0
2014-Jul-14 02:28N 40°44' E 013°58'0 0.0
2014-Jul-14 01:31N 40°44' E 013°58'0 0.0
2014-Jul-14 00:31N 40°44' E 013°58'0 0.0
2014-Jul-13 23:31N 40°44' E 013°58'0 0.0
2014-Jul-13 22:31N 40°44' E 013°58'0 0.0
2014-Jul-13 21:31N 40°44' E 013°58'0 0.0
2014-Jul-13 20:31N 40°44' E 013°58'0 0.0
2014-Jul-13 19:31N 40°44' E 013°58'0 0.0
2014-Jul-13 18:28N 40°44' E 013°58'0 0.0
2014-Jul-13 17:31N 40°44' E 013°58'0 0.0
2014-Jul-13 16:31N 40°44' E 013°58'0 0.0
2014-Jul-13 15:28N 40°44' E 013°58'0 0.0
2014-Jul-13 14:31N 40°44' E 013°58'0 0.0
2014-Jul-13 13:31N 40°44' E 013°58'0 0.0
2014-Jul-13 12:31N 40°44' E 013°58'0 0.0
2014-Jul-13 11:31N 40°44' E 013°58'0 0.1
2014-Jul-13 10:31N 40°44' E 013°58'2 2.0
2014-Jul-13 09:32N 40°45' E 014°00'1211.7
2014-Jul-13 08:33N 40°37' E 014°11'4 3.4
2014-Jul-13 07:18N 40°33' E 014°15'0 0.0
2014-Jul-13 06:21N 40°33' E 014°15'0 0.0
2014-Jul-13 05:27N 40°33' E 014°15'0 0.0
2014-Jul-13 04:33N 40°33' E 014°15'0 0.0
2014-Jul-13 03:12N 40°33' E 014°15'0 0.0
2014-Jul-13 02:24N 40°33' E 014°15'0 0.0
2014-Jul-13 00:18N 40°33' E 014°15'0 0.0
2014-Jul-12 23:06N 40°33' E 014°15'0 0.0
2014-Jul-12 22:30N 40°33' E 014°15'0 0.0
2014-Jul-12 21:30N 40°33' E 014°15'0 0.0
2014-Jul-12 20:18N 40°33' E 014°15'0 0.0
2014-Jul-12 19:30N 40°33' E 014°15'0 0.0
2014-Jul-12 18:30N 40°33' E 014°15'0 0.0
2014-Jul-12 17:30N 40°33' E 014°15'0 0.0
2014-Jul-12 16:06N 40°33' E 014°15'0 0.0
2014-Jul-12 15:09N 40°33' E 014°15'0 0.0
2014-Jul-12 14:15N 40°33' E 014°15'0 0.0
2014-Jul-12 13:30N 40°33' E 014°15'0 0.0
2014-Jul-12 12:30N 40°33' E 014°15'0 0.0
2014-Jul-12 11:24N 40°33' E 014°15'0 0.0
2014-Jul-12 08:27N 40°33' E 014°15'0 0.0
2014-Jul-12 07:30N 40°33' E 014°15'0 0.0
2014-Jul-12 03:18N 40°33' E 014°15'0 0.0
2014-Jul-12 02:12N 40°33' E 014°15'0 0.0
2014-Jul-12 01:24N 40°33' E 014°15'0 0.0
2014-Jul-12 00:06N 40°33' E 014°15'0 0.0
2014-Jul-11 23:12N 40°33' E 014°15'0 0.0
2014-Jul-11 22:24N 40°33' E 014°15'0 0.0
2014-Jul-11 21:18N 40°33' E 014°15'0 0.0
2014-Jul-11 20:24N 40°33' E 014°15'0 0.0
2014-Jul-11 19:24N 40°33' E 014°15'0 0.0
2014-Jul-11 18:12N 40°33' E 014°15'2 2.6
2014-Jul-11 17:33N 40°35' E 014°15'1312.6
2014-Jul-11 16:34N 40°48' E 014°14'1 0.1
2014-Jul-11 11:03N 40°48' E 014°13'714.5
2014-Jul-11 10:33N 40°46' E 014°04'1514.7
2014-Jul-11 09:34N 40°53' E 013°46'  
Track history (hours):
 
Tides and Currents Weather Stations Pressure Air Temp Water Temp Dewpoint Dewpoint Depression Visibility Wind Speed Wind Dir Waves Ship Positions

Azucar

Last reported at 2014-Jul-20 22:32 UTC. Time now 2014-Jul-24 19:17 UTC.
Position N 41°44' E 012°15'.

Length 40 m; draft 2.1 m.

Type: Pleasure craft. MMSI: 319416000.

Date/timePositionNaut miles runAvg speedWind from/ knotsBaromVisibWave heightAir tempDewpointWater temp
2014-Jul-20 22:32N 41°44' E 012°15'0 0.0
2014-Jul-20 18:20N 41°44' E 012°15'56 1.8
2014-Jul-19 11:10N 40°55' E 012°51'0 0.0
2014-Jul-19 10:16N 40°55' E 012°51'5 2.0
2014-Jul-19 07:32N 40°53' E 012°57'2 0.2
2014-Jul-18 20:24N 40°54' E 012°58'0 0.0
2014-Jul-18 17:18N 40°54' E 012°58'7 0.3
2014-Jul-17 20:23N 40°50' E 013°06'1012.5
2014-Jul-17 19:34N 40°47' E 013°19'1212.3
2014-Jul-17 18:33N 40°44' E 013°34'1212.2
2014-Jul-17 17:34N 40°40' E 013°50'1212.2
2014-Jul-17 16:33N 40°37' E 014°05'1211.8
2014-Jul-17 15:33N 40°34' E 014°21'1 1.2
2014-Jul-17 14:19N 40°35' E 014°22'0 0.0
2014-Jul-17 13:30N 40°35' E 014°22'2 0.1
2014-Jul-16 08:33N 40°33' E 014°21'3 0.1
2014-Jul-14 11:33N 40°35' E 014°17'1110.8
2014-Jul-14 10:33N 40°40' E 014°05'6 5.9
2014-Jul-14 09:32N 40°44' E 013°58'0 0.0
2014-Jul-14 08:32N 40°44' E 013°58'0 0.0
2014-Jul-14 07:31N 40°44' E 013°58'0 0.0
2014-Jul-14 06:28N 40°44' E 013°58'0 0.0
2014-Jul-14 05:32N 40°44' E 013°58'0 0.0
2014-Jul-14 04:32N 40°44' E 013°58'0 0.0
2014-Jul-14 03:32N 40°44' E 013°58'0 0.0
2014-Jul-14 02:28N 40°44' E 013°58'0 0.0
2014-Jul-14 01:31N 40°44' E 013°58'0 0.0
2014-Jul-14 00:31N 40°44' E 013°58'0 0.0
2014-Jul-13 23:31N 40°44' E 013°58'0 0.0
2014-Jul-13 22:31N 40°44' E 013°58'0 0.0
2014-Jul-13 21:31N 40°44' E 013°58'0 0.0
2014-Jul-13 20:31N 40°44' E 013°58'0 0.0
2014-Jul-13 19:31N 40°44' E 013°58'0 0.0
2014-Jul-13 18:28N 40°44' E 013°58'0 0.0
2014-Jul-13 17:31N 40°44' E 013°58'0 0.0
2014-Jul-13 16:31N 40°44' E 013°58'0 0.0
2014-Jul-13 15:28N 40°44' E 013°58'0 0.0
2014-Jul-13 14:31N 40°44' E 013°58'0 0.0
2014-Jul-13 13:31N 40°44' E 013°58'0 0.0
2014-Jul-13 12:31N 40°44' E 013°58'0 0.0
2014-Jul-13 11:31N 40°44' E 013°58'0 0.1
2014-Jul-13 10:31N 40°44' E 013°58'2 2.0
2014-Jul-13 09:32N 40°45' E 014°00'1211.7
2014-Jul-13 08:33N 40°37' E 014°11'4 3.4
2014-Jul-13 07:18N 40°33' E 014°15'0 0.0
2014-Jul-13 06:21N 40°33' E 014°15'0 0.0
2014-Jul-13 05:27N 40°33' E 014°15'0 0.0
2014-Jul-13 04:33N 40°33' E 014°15'0 0.0
2014-Jul-13 03:12N 40°33' E 014°15'0 0.0
2014-Jul-13 02:24N 40°33' E 014°15'0 0.0
2014-Jul-13 00:18N 40°33' E 014°15'0 0.0
2014-Jul-12 23:06N 40°33' E 014°15'0 0.0
2014-Jul-12 22:30N 40°33' E 014°15'0 0.0
2014-Jul-12 21:30N 40°33' E 014°15'0 0.0
2014-Jul-12 20:18N 40°33' E 014°15'0 0.0
2014-Jul-12 19:30N 40°33' E 014°15'0 0.0
2014-Jul-12 18:30N 40°33' E 014°15'0 0.0
2014-Jul-12 17:30N 40°33' E 014°15'0 0.0
2014-Jul-12 16:06N 40°33' E 014°15'0 0.0
2014-Jul-12 15:09N 40°33' E 014°15'0 0.0
2014-Jul-12 14:15N 40°33' E 014°15'0 0.0
2014-Jul-12 13:30N 40°33' E 014°15'0 0.0
2014-Jul-12 12:30N 40°33' E 014°15'0 0.0
2014-Jul-12 11:24N 40°33' E 014°15'0 0.0
2014-Jul-12 08:27N 40°33' E 014°15'0 0.0
2014-Jul-12 07:30N 40°33' E 014°15'0 0.0
2014-Jul-12 03:18N 40°33' E 014°15'0 0.0
2014-Jul-12 02:12N 40°33' E 014°15'0 0.0
2014-Jul-12 01:24N 40°33' E 014°15'0 0.0
2014-Jul-12 00:06N 40°33' E 014°15'0 0.0
2014-Jul-11 23:12N 40°33' E 014°15'0 0.0
2014-Jul-11 22:24N 40°33' E 014°15'0 0.0
2014-Jul-11 21:18N 40°33' E 014°15'0 0.0
2014-Jul-11 20:24N 40°33' E 014°15'0 0.0
2014-Jul-11 19:24N 40°33' E 014°15'0 0.0
2014-Jul-11 18:12N 40°33' E 014°15'2 2.6
2014-Jul-11 17:33N 40°35' E 014°15'1312.6
2014-Jul-11 16:34N 40°48' E 014°14'1 0.1
2014-Jul-11 11:03N 40°48' E 014°13'714.5
2014-Jul-11 10:33N 40°46' E 014°04'1514.7
2014-Jul-11 09:34N 40°53' E 013°46'  

Dump ship's entire track history